Главная страница
METAR-TAF:

METAR-TAF

Аэропорты :

Уоллис, Франция

широта: 13-14S, долгота: 176-10W, высота над уровнем моря: 23 м

METAR: отсутствует

Время: 09:48 (21:48 UTC)

Прогноз

Эта сводка был подготовлена 1 час и 15 минут назад, в 20:33 UTC
Прогноз действительный с 09-го 20 UTC до 10-го 18 UTC
Ветер 10 Узел от западный
Видимость 10 км и более
Отдельные облака на высоте 1800 фута
временами
С 09-го 21 UTC до 10-го 10 UTC
Видимость: 3000 м
Рассеянная облачность на высоте 1500 фута
небольшая облачность на высоте 1800 фута, Кучево-дождевые.
гроза, дождь

TAF: NLWW 092033Z 0920/1018 27010KT 9999 SCT018 TEMPO 0921/1010 3000 TSRA BKN015 FEW018CB

Метеонаблюдения и прогнозы для более 4000 аэропортов (сводки METAR и TAF).

Имеющиеся станции представлены на карте желтыми и красными точками.

Чтобы увидеть название станции, наведите на нее мышь.

Затем щелкните, чтобы увидеть метеонаблюдения и метеопрогнозы.

Управление картой: чтобы увеличить масштаб, щелкните зеленые кнопки с черным крестиком; чтобы уменьшить масштаб, щелкните зеленую кнопку с тире; для просмотра соседних карт щелкайте зеленые стрелки.


METAR-TAF: